createdAt,value
2018-05-21T00:01:39.944Z,7.80
2018-05-21T00:04:07.562Z,7.70
2018-05-21T00:06:35.148Z,7.60
2018-05-21T00:09:03.513Z,7.50
2018-05-21T00:11:31.198Z,7.50
2018-05-21T00:13:59.897Z,7.50
2018-05-21T00:16:28.592Z,7.40
2018-05-21T00:18:56.941Z,7.50
2018-05-21T00:21:24.560Z,7.50
2018-05-21T00:23:52.175Z,7.50
2018-05-21T00:26:19.797Z,7.50
2018-05-21T00:28:47.412Z,7.50
2018-05-21T00:31:15.743Z,7.50
2018-05-21T00:33:43.376Z,7.40
2018-05-21T00:36:11.040Z,7.40
2018-05-21T00:38:39.416Z,7.30
2018-05-21T00:41:07.042Z,7.30
2018-05-21T00:43:34.645Z,7.40
2018-05-21T00:46:02.240Z,7.30
2018-05-21T00:48:30.657Z,7.30
2018-05-21T00:50:58.231Z,7.30
2018-05-21T00:53:25.838Z,7.30
2018-05-21T00:55:53.452Z,7.30
2018-05-21T00:58:21.052Z,7.20
2018-05-21T01:00:48.672Z,7.30
2018-05-21T01:03:16.674Z,7.40
2018-05-21T01:05:44.335Z,7.40
2018-05-21T01:08:11.947Z,7.30
2018-05-21T01:10:39.571Z,7.40
2018-05-21T01:13:07.184Z,7.40
2018-05-21T01:15:35.627Z,7.40
2018-05-21T01:18:03.961Z,7.30
2018-05-21T01:20:32.364Z,7.40
2018-05-21T01:22:59.982Z,7.30
2018-05-21T01:25:27.568Z,7.30
2018-05-21T01:27:55.973Z,7.30
2018-05-21T01:30:23.630Z,7.20
2018-05-21T01:32:52.034Z,7.20
2018-05-21T01:35:19.621Z,7.10
2018-05-21T01:37:47.225Z,7.20
2018-05-21T01:40:14.809Z,7.30
2018-05-21T01:42:42.411Z,7.30
2018-05-21T01:45:10.030Z,7.30
2018-05-21T01:47:38.413Z,7.10
2018-05-21T01:50:06.799Z,7.10
2018-05-21T01:52:35.158Z,7.10
2018-05-21T01:55:02.757Z,7.00
2018-05-21T01:57:31.536Z,6.90
2018-05-21T01:59:59.896Z,6.80
2018-05-21T02:02:27.486Z,6.80
2018-05-21T02:04:55.151Z,6.70
2018-05-21T02:07:23.773Z,6.90
2018-05-21T02:09:51.421Z,6.90
2018-05-21T02:12:19.798Z,7.00
2018-05-21T02:14:48.165Z,7.20
2018-05-21T02:17:16.583Z,7.00
2018-05-21T02:19:44.216Z,7.00
2018-05-21T02:22:11.843Z,7.10
2018-05-21T02:24:39.420Z,7.00
2018-05-21T02:27:07.067Z,7.10
2018-05-21T02:29:35.424Z,6.90
2018-05-21T02:32:03.025Z,6.90
2018-05-21T02:34:30.619Z,6.90
2018-05-21T02:36:58.243Z,6.90
2018-05-21T02:39:26.584Z,6.90
2018-05-21T02:41:54.934Z,7.00
2018-05-21T02:44:22.563Z,7.00
2018-05-21T02:46:50.177Z,7.00
2018-05-21T02:49:17.761Z,6.90
2018-05-21T02:51:46.152Z,6.90
2018-05-21T02:54:14.530Z,6.90
2018-05-21T02:56:42.940Z,6.90
2018-05-21T02:59:10.533Z,6.80
2018-05-21T03:01:38.155Z,6.80
2018-05-21T03:04:05.785Z,6.70
2018-05-21T03:06:33.377Z,6.70
2018-05-21T03:09:01.727Z,6.70
2018-05-21T03:11:29.337Z,6.70
2018-05-21T03:13:56.968Z,6.70
2018-05-21T03:16:24.553Z,6.80
2018-05-21T03:18:52.149Z,6.90
2018-05-21T03:21:19.776Z,7.00
2018-05-21T03:23:47.387Z,7.00
2018-05-21T03:26:15.012Z,7.00
2018-05-21T03:28:42.653Z,6.90
2018-05-21T03:31:10.248Z,7.00
2018-05-21T03:33:37.852Z,7.00
2018-05-21T03:36:05.465Z,6.90
2018-05-21T03:38:33.046Z,6.90
2018-05-21T03:41:01.406Z,7.10
2018-05-21T03:43:29.018Z,7.00
2018-05-21T03:45:56.617Z,7.10
2018-05-21T03:48:24.247Z,7.00
2018-05-21T03:50:52.594Z,7.10
2018-05-21T03:53:20.255Z,7.10
2018-05-21T03:55:47.850Z,7.20
2018-05-21T03:58:28.028Z,7.20
2018-05-21T04:01:07.552Z,7.20
2018-05-21T04:03:47.678Z,7.40
2018-05-21T04:06:15.316Z,7.40
2018-05-21T04:08:42.938Z,7.50
2018-05-21T04:11:10.862Z,7.60
2018-05-21T04:13:38.444Z,7.70
2018-05-21T04:16:06.061Z,7.80
2018-05-21T04:18:33.664Z,7.90
2018-05-21T04:21:01.293Z,7.90
2018-05-21T04:23:28.885Z,7.90
2018-05-21T04:25:56.711Z,8.10
2018-05-21T04:28:24.331Z,8.20
2018-05-21T04:30:51.923Z,8.30
2018-05-21T04:33:21.165Z,8.60
2018-05-21T04:35:48.803Z,8.60
2018-05-21T04:38:17.188Z,8.80
2018-05-21T04:40:45.558Z,8.80
2018-05-21T04:43:13.911Z,8.90
2018-05-21T04:45:41.560Z,9.00
2018-05-21T04:48:09.176Z,9.10
2018-05-21T04:50:37.528Z,9.40
2018-05-21T04:53:05.167Z,9.40
2018-05-21T04:55:32.776Z,9.60
2018-05-21T04:58:00.368Z,10.00
2018-05-21T05:00:28.035Z,10.20
2018-05-21T05:02:55.627Z,10.40
2018-05-21T05:05:23.257Z,10.70
2018-05-21T05:07:51.613Z,11.20
2018-05-21T05:10:19.207Z,11.20
2018-05-21T05:12:47.611Z,11.50
2018-05-21T05:15:15.191Z,11.40
2018-05-21T05:17:42.814Z,11.80
2018-05-21T05:20:11.219Z,11.90
2018-05-21T05:22:38.882Z,11.90
2018-05-21T05:25:06.490Z,12.10
2018-05-21T05:27:34.148Z,12.10
2018-05-21T05:30:01.744Z,12.20
2018-05-21T05:32:29.332Z,12.30
2018-05-21T05:34:57.732Z,12.50
2018-05-21T05:37:26.098Z,12.60
2018-05-21T05:39:54.906Z,12.50
2018-05-21T05:42:23.272Z,12.60
2018-05-21T05:44:51.648Z,12.60
2018-05-21T05:47:19.272Z,12.60
2018-05-21T05:49:47.096Z,12.80
2018-05-21T05:52:15.472Z,12.90
2018-05-21T05:54:43.062Z,12.90
2018-05-21T05:57:10.728Z,13.10
2018-05-21T05:59:38.405Z,13.30
2018-05-21T06:02:06.007Z,13.50
2018-05-21T06:04:33.606Z,13.70
2018-05-21T06:07:02.015Z,13.90
2018-05-21T06:09:29.623Z,13.90
2018-05-21T06:11:57.223Z,14.10
2018-05-21T06:14:24.859Z,14.10
2018-05-21T06:16:52.476Z,14.20
2018-05-21T06:19:20.294Z,14.20
2018-05-21T06:21:48.243Z,14.20
2018-05-21T06:24:15.849Z,14.20
2018-05-21T06:26:44.224Z,14.40
2018-05-21T06:29:11.857Z,14.30
2018-05-21T06:31:39.493Z,14.50
2018-05-21T06:34:07.271Z,14.50
2018-05-21T06:36:35.504Z,14.80
2018-05-21T06:39:03.136Z,14.80
2018-05-21T06:41:30.805Z,14.90
2018-05-21T06:43:58.407Z,15.00
2018-05-21T06:46:26.021Z,15.10
2018-05-21T06:48:53.676Z,15.20
2018-05-21T06:51:22.072Z,15.60
2018-05-21T06:53:49.699Z,15.50
2018-05-21T06:56:17.350Z,15.60
2018-05-21T06:58:44.970Z,15.80
2018-05-21T07:01:12.934Z,16.00
2018-05-21T07:03:40.556Z,16.10
2018-05-21T07:06:08.196Z,16.20
2018-05-21T07:08:35.847Z,16.30
2018-05-21T07:11:03.473Z,16.60
2018-05-21T07:13:31.071Z,17.00
2018-05-21T07:15:58.699Z,17.20
2018-05-21T07:18:26.315Z,17.40
2018-05-21T07:20:53.906Z,17.50
2018-05-21T07:23:21.535Z,17.80
2018-05-21T07:25:49.149Z,18.20
2018-05-21T07:28:17.146Z,18.50
2018-05-21T07:30:44.746Z,18.70
2018-05-21T07:33:12.379Z,19.00
2018-05-21T07:35:39.998Z,19.50
2018-05-21T07:38:07.639Z,19.60
2018-05-21T07:40:35.223Z,19.80
2018-05-21T07:43:02.860Z,20.00
2018-05-21T07:45:31.378Z,21.00
2018-05-21T07:47:58.996Z,20.90
2018-05-21T07:50:26.581Z,20.60
2018-05-21T07:52:54.926Z,20.90
2018-05-21T07:55:22.705Z,20.90
2018-05-21T07:57:50.318Z,21.30
2018-05-21T08:00:17.910Z,21.50
2018-05-21T08:02:45.928Z,21.50
2018-05-21T08:05:14.368Z,21.80
2018-05-21T08:07:41.942Z,21.70
2018-05-21T08:10:09.643Z,22.10
2018-05-21T08:12:37.988Z,22.60
2018-05-21T08:15:05.964Z,22.60
2018-05-21T08:17:33.593Z,22.10
2018-05-21T08:20:01.251Z,21.60
2018-05-21T08:22:29.762Z,23.00
2018-05-21T08:24:57.387Z,23.00
2018-05-21T08:27:25.816Z,22.70
2018-05-21T08:29:53.431Z,22.60
2018-05-21T08:32:21.871Z,22.80
2018-05-21T08:34:49.713Z,22.80
2018-05-21T08:37:17.323Z,23.00
2018-05-21T08:39:45.185Z,22.90
2018-05-21T08:42:13.056Z,23.20
2018-05-21T08:44:40.806Z,23.50
2018-05-21T08:47:08.398Z,23.80
2018-05-21T08:49:36.023Z,23.90
2018-05-21T08:52:03.609Z,23.90
2018-05-21T08:54:31.224Z,23.40
2018-05-21T08:57:00.256Z,23.70
2018-05-21T08:59:27.915Z,24.40
2018-05-21T09:01:55.538Z,24.20
2018-05-21T09:04:23.236Z,24.00
2018-05-21T09:06:50.885Z,24.30
2018-05-21T09:09:19.694Z,24.40
2018-05-21T09:11:48.052Z,24.70
2018-05-21T09:14:15.637Z,24.70
2018-05-21T09:16:44.026Z,24.60
2018-05-21T09:19:12.370Z,25.00
2018-05-21T09:21:39.989Z,25.00
2018-05-21T09:24:07.618Z,25.50
2018-05-21T09:26:35.322Z,24.70
2018-05-21T09:29:02.911Z,25.00
2018-05-21T09:31:30.557Z,25.00
2018-05-21T09:33:58.203Z,25.10
2018-05-21T09:36:26.117Z,24.90
2018-05-21T09:38:53.739Z,25.00
2018-05-21T09:41:21.412Z,25.20
2018-05-21T09:43:50.000Z,26.00
2018-05-21T09:46:18.356Z,26.30
2018-05-21T09:48:46.105Z,26.30
2018-05-21T09:51:13.687Z,25.80
2018-05-21T09:53:41.392Z,25.50
2018-05-21T09:56:09.795Z,25.80
2018-05-21T09:58:37.453Z,25.70
2018-05-21T10:01:05.087Z,26.20
2018-05-21T10:03:32.695Z,25.60
2018-05-21T10:06:01.090Z,26.20
2018-05-21T10:08:28.702Z,26.10
2018-05-21T10:10:56.361Z,26.00
2018-05-21T10:13:24.043Z,25.90
2018-05-21T10:15:52.411Z,26.30
2018-05-21T10:18:20.073Z,26.30
2018-05-21T10:20:47.695Z,26.70
2018-05-21T10:23:15.339Z,26.00
2018-05-21T10:25:43.724Z,26.80
2018-05-21T10:28:12.101Z,27.40
2018-05-21T10:30:40.503Z,27.40
2018-05-21T10:33:08.187Z,27.40
2018-05-21T10:35:35.852Z,27.00
2018-05-21T10:38:03.522Z,26.90
2018-05-21T10:40:31.153Z,26.80
2018-05-21T10:42:59.520Z,27.60
2018-05-21T10:45:27.160Z,27.60
2018-05-21T10:47:54.736Z,27.80
2018-05-21T10:50:22.348Z,27.50
2018-05-21T10:52:50.013Z,27.60
2018-05-21T10:55:18.404Z,26.60
2018-05-21T10:57:46.074Z,26.60
2018-05-21T11:00:13.661Z,26.30
2018-05-21T11:02:41.307Z,26.80
2018-05-21T11:05:08.945Z,27.20
2018-05-21T11:07:37.346Z,26.90
2018-05-21T11:10:05.739Z,26.70
2018-05-21T11:12:33.324Z,26.70
2018-05-21T11:15:01.308Z,26.50
2018-05-21T11:17:28.927Z,26.20
2018-05-21T11:19:57.278Z,26.90
2018-05-21T11:22:24.952Z,26.90
2018-05-21T11:24:52.566Z,26.10
2018-05-21T11:27:20.207Z,26.90
2018-05-21T11:29:48.579Z,26.30
2018-05-21T11:32:16.309Z,26.30
2018-05-21T11:34:43.902Z,26.70
2018-05-21T11:37:11.506Z,27.20
2018-05-21T11:39:39.119Z,27.50
2018-05-21T11:42:07.147Z,26.90
2018-05-21T11:44:34.744Z,27.40
2018-05-21T11:47:03.071Z,27.70
2018-05-21T11:49:31.490Z,28.10
2018-05-21T11:51:59.147Z,28.10
2018-05-21T11:54:26.735Z,27.60
2018-05-21T11:56:54.430Z,28.00
2018-05-21T11:59:22.222Z,27.40
2018-05-21T12:01:49.901Z,26.40
2018-05-21T12:04:17.476Z,26.00
2018-05-21T12:06:45.111Z,26.30
2018-05-21T12:09:13.069Z,26.30
2018-05-21T12:11:40.724Z,26.50
2018-05-21T12:14:08.313Z,26.40
2018-05-21T12:16:35.944Z,27.10
2018-05-21T12:19:03.589Z,27.90
2018-05-21T12:21:31.241Z,27.40
2018-05-21T12:23:59.819Z,27.20
2018-05-21T12:26:27.501Z,27.20
2018-05-21T12:28:55.467Z,26.70
2018-05-21T12:31:23.812Z,27.00
2018-05-21T12:33:51.431Z,27.00
2018-05-21T12:36:19.387Z,27.60
2018-05-21T12:38:47.745Z,26.10
2018-05-21T12:41:15.379Z,26.10
2018-05-21T12:43:43.009Z,26.20
2018-05-21T12:46:11.361Z,27.40
2018-05-21T12:48:39.031Z,27.30
2018-05-21T12:51:06.658Z,27.80
2018-05-21T12:53:34.312Z,27.70
2018-05-21T12:56:01.976Z,27.40
2018-05-21T12:58:29.563Z,27.10
2018-05-21T13:00:57.257Z,27.20
2018-05-21T13:03:24.888Z,27.20
2018-05-21T13:05:52.484Z,27.50
2018-05-21T13:08:21.167Z,28.30
2018-05-21T13:10:48.792Z,27.50
2018-05-21T13:13:16.381Z,27.70
2018-05-21T13:15:43.974Z,26.60
2018-05-21T13:18:11.618Z,27.20
2018-05-21T13:20:39.196Z,28.10
2018-05-21T13:23:06.793Z,27.60
2018-05-21T13:25:34.413Z,27.20
2018-05-21T13:28:02.057Z,27.10
2018-05-21T13:30:29.786Z,27.30
2018-05-21T13:32:57.379Z,26.90
2018-05-21T13:35:24.968Z,27.80
2018-05-21T13:37:52.655Z,27.50
2018-05-21T13:40:20.280Z,28.00
2018-05-21T13:42:48.243Z,28.10
2018-05-21T13:45:15.847Z,28.30
2018-05-21T13:47:43.448Z,28.20
2018-05-21T13:50:12.245Z,28.00
2018-05-21T13:52:40.602Z,27.60
2018-05-21T13:55:08.194Z,27.60
2018-05-21T13:57:37.329Z,26.70
2018-05-21T14:00:05.448Z,26.70
2018-05-21T14:02:33.834Z,26.20
2018-05-21T14:05:01.545Z,26.20
2018-05-21T14:07:29.290Z,26.00
2018-05-21T14:09:57.660Z,26.70
2018-05-21T14:15:23.778Z,26.90
2018-05-21T14:17:51.465Z,26.70
2018-05-21T14:20:19.080Z,26.60
2018-05-21T14:22:46.703Z,26.60
2018-05-21T14:25:15.197Z,26.70
2018-05-21T14:27:42.737Z,26.70
2018-05-21T14:30:10.397Z,25.90
2018-05-21T14:32:38.036Z,25.70
2018-05-21T14:35:05.661Z,25.50
2018-05-21T14:37:34.043Z,25.40
2018-05-21T14:40:02.420Z,26.00
2018-05-21T14:42:30.785Z,26.30
2018-05-21T14:44:58.402Z,26.30
2018-05-21T14:47:26.011Z,26.30
2018-05-21T14:49:53.642Z,26.70
2018-05-21T14:52:21.261Z,26.00
2018-05-21T14:54:48.888Z,25.30
2018-05-21T14:57:16.513Z,25.70
2018-05-21T14:59:44.891Z,25.70
2018-05-21T15:02:13.315Z,26.00
2018-05-21T15:04:40.920Z,26.00
2018-05-21T15:07:08.543Z,26.10
2018-05-21T15:09:36.132Z,25.60
2018-05-21T15:12:03.748Z,25.60
2018-05-21T15:14:31.386Z,25.70
2018-05-21T15:16:58.986Z,25.80
2018-05-21T15:19:26.603Z,25.70
2018-05-21T15:21:54.232Z,25.50
2018-05-21T15:24:21.861Z,25.40
2018-05-21T15:26:50.208Z,25.40
2018-05-21T15:29:17.804Z,25.40
2018-05-21T15:31:45.865Z,25.20
2018-05-21T15:34:13.492Z,25.50
2018-05-21T15:36:41.114Z,25.10
2018-05-21T15:39:09.541Z,24.80
2018-05-21T15:41:37.260Z,24.80
2018-05-21T15:44:05.631Z,24.60
2018-05-21T15:46:33.293Z,24.60
2018-05-21T15:49:00.888Z,24.40
2018-05-21T15:51:29.288Z,24.10
2018-05-21T15:53:56.895Z,24.10
2018-05-21T15:56:24.531Z,23.90
2018-05-21T15:58:52.155Z,24.00
2018-05-21T16:01:19.750Z,24.10
2018-05-21T16:03:47.366Z,24.10
2018-05-21T16:06:15.010Z,24.20
2018-05-21T16:08:42.677Z,23.80
2018-05-21T16:11:10.287Z,23.60
2018-05-21T16:13:37.905Z,23.40
2018-05-21T16:16:05.507Z,23.30
2018-05-21T16:18:33.126Z,23.30
2018-05-21T16:21:00.763Z,23.10
2018-05-21T16:23:29.115Z,23.00
2018-05-21T16:25:56.719Z,23.00
2018-05-21T16:28:25.115Z,22.70
2018-05-21T16:30:52.751Z,22.70
2018-05-21T16:33:20.374Z,22.70
2018-05-21T16:35:47.991Z,22.70
2018-05-21T16:38:16.380Z,22.50
2018-05-21T16:40:44.076Z,22.50
2018-05-21T16:43:11.731Z,22.40
2018-05-21T16:45:40.094Z,22.30
2018-05-21T16:48:08.502Z,22.30
2018-05-21T16:50:36.115Z,22.20
2018-05-21T16:53:03.765Z,22.30
2018-05-21T16:55:31.364Z,22.30
2018-05-21T16:57:59.034Z,22.20
2018-05-21T17:00:26.682Z,22.00
2018-05-21T17:02:54.422Z,22.00
2018-05-21T17:05:22.396Z,21.90
2018-05-21T17:07:50.006Z,21.70
2018-05-21T17:10:18.434Z,21.70
2018-05-21T17:12:46.048Z,21.70
2018-05-21T17:15:13.687Z,21.70
2018-05-21T17:17:41.309Z,21.60
2018-05-21T17:20:08.930Z,21.70
2018-05-21T17:22:36.560Z,21.50
2018-05-21T17:25:04.214Z,21.50
2018-05-21T17:27:31.880Z,21.40
2018-05-21T17:30:00.274Z,21.30
2018-05-21T17:32:27.905Z,21.30
2018-05-21T17:34:55.552Z,21.30
2018-05-21T17:37:23.499Z,21.20
2018-05-21T17:39:51.141Z,21.10
2018-05-21T17:42:18.857Z,21.00
2018-05-21T17:44:47.246Z,20.90
2018-05-21T17:47:14.867Z,20.90
2018-05-21T17:49:42.499Z,20.80
2018-05-21T17:52:10.144Z,20.70
2018-05-21T17:54:37.785Z,20.70
2018-05-21T17:57:05.406Z,20.60
2018-05-21T17:59:33.808Z,20.40
2018-05-21T18:02:01.448Z,20.40
2018-05-21T18:04:29.086Z,20.40
2018-05-21T18:06:56.746Z,20.40
2018-05-21T18:09:24.413Z,20.20
2018-05-21T18:11:52.040Z,20.20
2018-05-21T18:14:19.869Z,20.10
2018-05-21T18:16:47.508Z,20.00
2018-05-21T18:19:15.109Z,19.80
2018-05-21T18:21:42.737Z,19.70
2018-05-21T18:24:10.357Z,19.70
2018-05-21T18:26:38.787Z,19.50
2018-05-21T18:29:06.430Z,19.40
2018-05-21T18:31:34.070Z,19.40
2018-05-21T18:34:01.732Z,19.30
2018-05-21T18:36:30.126Z,19.10
2018-05-21T18:38:58.536Z,19.00
2018-05-21T18:41:26.561Z,19.00
2018-05-21T18:43:54.174Z,18.90
2018-05-21T18:46:21.820Z,18.90
2018-05-21T18:48:50.262Z,18.60
2018-05-21T18:51:17.919Z,18.60
2018-05-21T18:53:45.781Z,18.60
2018-05-21T18:56:15.013Z,18.50
2018-05-21T18:58:42.792Z,18.30
2018-05-21T19:01:10.454Z,18.20
2018-05-21T19:03:38.099Z,18.20
2018-05-21T19:06:05.759Z,18.00
2018-05-21T19:08:33.556Z,18.00
2018-05-21T19:11:01.233Z,17.80
2018-05-21T19:13:28.859Z,17.70
2018-05-21T19:15:56.491Z,17.60
2018-05-21T19:18:24.148Z,17.50
2018-05-21T19:20:51.842Z,17.40
2018-05-21T19:23:20.244Z,17.10
2018-05-21T19:25:48.657Z,17.00
2018-05-21T19:28:16.287Z,17.00
2018-05-21T19:30:44.632Z,16.80
2018-05-21T19:33:12.246Z,16.70
2018-05-21T19:35:39.849Z,16.70
2018-05-21T19:38:07.437Z,16.60
2018-05-21T19:40:35.047Z,16.50
2018-05-21T19:43:02.666Z,16.40
2018-05-21T19:45:30.272Z,16.30
2018-05-21T19:47:58.127Z,16.10
2018-05-21T19:50:26.829Z,15.90
2018-05-21T19:52:54.427Z,15.90
2018-05-21T19:55:22.046Z,15.80
2018-05-21T19:57:49.648Z,15.70
2018-05-21T20:00:17.314Z,15.60
2018-05-21T20:02:44.963Z,15.50
2018-05-21T20:05:13.329Z,15.40
2018-05-21T20:07:41.682Z,15.30
2018-05-21T20:10:09.296Z,15.30
2018-05-21T20:12:37.974Z,15.10
2018-05-21T20:15:05.582Z,15.10
2018-05-21T20:17:33.199Z,15.00
2018-05-21T20:20:01.541Z,15.00
2018-05-21T20:22:29.151Z,15.00
2018-05-21T20:24:57.505Z,14.80
2018-05-21T20:27:25.157Z,14.80
2018-05-21T20:29:53.053Z,14.70
2018-05-21T20:32:20.740Z,14.60
2018-05-21T20:34:49.135Z,14.60
2018-05-21T20:37:17.577Z,14.60
2018-05-21T20:39:45.257Z,14.60
2018-05-21T20:42:12.874Z,14.60
2018-05-21T20:44:40.464Z,14.50
2018-05-21T20:47:08.131Z,14.50
2018-05-21T20:49:35.820Z,14.40
2018-05-21T20:52:04.304Z,14.20
2018-05-21T20:54:31.956Z,14.20
2018-05-21T20:56:59.568Z,14.10
2018-05-21T20:59:27.916Z,13.90
2018-05-21T21:01:55.564Z,13.90
2018-05-21T21:04:23.211Z,13.90
2018-05-21T21:06:50.881Z,13.90
2018-05-21T21:09:18.518Z,13.80
2018-05-21T21:11:46.867Z,13.70
2018-05-21T21:14:14.664Z,13.70
2018-05-21T21:16:43.028Z,13.50
2018-05-21T21:19:10.602Z,13.50
2018-05-21T21:21:38.390Z,13.40
2018-05-21T21:24:06.760Z,13.30
2018-05-21T21:26:34.344Z,13.30
2018-05-21T21:29:01.971Z,13.30
2018-05-21T21:31:29.576Z,13.30
2018-05-21T21:33:57.955Z,13.20
2018-05-21T21:36:26.304Z,13.20
2018-05-21T21:38:53.940Z,13.10
2018-05-21T21:41:21.558Z,13.20
2018-05-21T21:43:49.139Z,13.00
2018-05-21T21:46:17.514Z,12.90
2018-05-21T21:48:45.219Z,12.90
2018-05-21T21:51:12.809Z,12.90
2018-05-21T21:53:40.424Z,12.80
2018-05-21T21:56:08.782Z,12.70
2018-05-21T21:58:36.401Z,12.70
2018-05-21T22:01:04.067Z,12.70
2018-05-21T22:03:31.707Z,12.50
2018-05-21T22:06:00.052Z,12.50
2018-05-21T22:08:27.635Z,12.50
2018-05-21T22:10:56.034Z,12.40
2018-05-21T22:13:24.392Z,12.40
2018-05-21T22:15:51.997Z,12.30
2018-05-21T22:18:19.588Z,12.30
2018-05-21T22:20:47.199Z,12.30
2018-05-21T22:23:14.789Z,12.20
2018-05-21T22:25:42.383Z,12.20
2018-05-21T22:28:10.000Z,12.20
2018-05-21T22:30:38.383Z,12.10
2018-05-21T22:33:06.733Z,12.10
2018-05-21T22:35:34.547Z,12.10
2018-05-21T22:38:02.898Z,12.00
2018-05-21T22:40:30.475Z,12.00
2018-05-21T22:42:58.096Z,12.00
2018-05-21T22:45:25.713Z,11.90
2018-05-21T22:47:54.066Z,11.90
2018-05-21T22:50:22.782Z,11.90
2018-05-21T22:52:51.134Z,12.10
2018-05-21T22:55:18.725Z,12.00
2018-05-21T22:57:46.721Z,12.00
2018-05-21T23:00:15.075Z,11.80
2018-05-21T23:02:42.677Z,11.80
2018-05-21T23:05:11.063Z,11.90
2018-05-21T23:07:38.748Z,11.90
2018-05-21T23:10:06.323Z,11.90
2018-05-21T23:12:33.908Z,11.70
2018-05-21T23:15:01.541Z,11.70
2018-05-21T23:17:29.165Z,11.70
2018-05-21T23:19:56.782Z,11.60
2018-05-21T23:22:36.202Z,11.50
2018-05-21T23:25:03.819Z,11.60
2018-05-21T23:27:31.480Z,11.50
2018-05-21T23:29:59.066Z,11.40
2018-05-21T23:32:26.681Z,11.30
2018-05-21T23:34:54.309Z,11.20
2018-05-21T23:37:22.652Z,11.20
2018-05-21T23:39:50.273Z,11.20
2018-05-21T23:42:17.860Z,11.20
2018-05-21T23:44:45.485Z,11.10
2018-05-21T23:47:13.095Z,11.20
2018-05-21T23:49:40.761Z,11.20
2018-05-21T23:52:08.357Z,11.20
2018-05-21T23:54:35.963Z,11.20
2018-05-21T23:57:04.344Z,11.00
2018-05-21T23:59:33.480Z,11.00
